sensor_id;sensor_type;location;lat;lon;timestamp;pressure;altitude;pressure_sealevel;temperature;humidity
6435;BME280;3250;42.694;23.278;2022-07-09T00:00:32;94782.22;;;19.47;90.97
6435;BME280;3250;42.694;23.278;2022-07-09T00:02:57;94781.72;;;19.45;90.13
6435;BME280;3250;42.694;23.278;2022-07-09T00:05:23;94793.72;;;19.42;90.25
6435;BME280;3250;42.694;23.278;2022-07-09T00:07:48;94792.38;;;19.40;90.20
6435;BME280;3250;42.694;23.278;2022-07-09T00:10:14;94790.28;;;19.37;90.37
6435;BME280;3250;42.694;23.278;2022-07-09T00:12:39;94790.28;;;19.37;89.38
6435;BME280;3250;42.694;23.278;2022-07-09T00:15:05;94791.31;;;19.31;89.73
6435;BME280;3250;42.694;23.278;2022-07-09T00:17:31;94776.63;;;19.23;89.96
6435;BME280;3250;42.694;23.278;2022-07-09T00:19:56;94757.94;;;19.13;89.78
6435;BME280;3250;42.694;23.278;2022-07-09T00:22:22;94784.13;;;19.36;90.17
6435;BME280;3250;42.694;23.278;2022-07-09T00:24:48;94782.25;;;19.37;90.04
6435;BME280;3250;42.694;23.278;2022-07-09T00:27:13;94779.84;;;19.35;89.91
6435;BME280;3250;42.694;23.278;2022-07-09T00:29:39;94738.47;;;19.17;89.77
6435;BME280;3250;42.694;23.278;2022-07-09T00:32:05;94778.50;;;19.38;90.06
6435;BME280;3250;42.694;23.278;2022-07-09T00:34:30;94775.81;;;19.38;89.81
6435;BME280;3250;42.694;23.278;2022-07-09T00:36:57;94767.81;;;19.38;89.43
6435;BME280;3250;42.694;23.278;2022-07-09T00:39:22;94762.25;;;19.19;88.97
6435;BME280;3250;42.694;23.278;2022-07-09T00:41:48;94772.63;;;19.10;89.58
6435;BME280;3250;42.694;23.278;2022-07-09T00:44:13;94764.09;;;19.08;90.43
6435;BME280;3250;42.694;23.278;2022-07-09T00:46:39;94761.66;;;19.12;90.16
6435;BME280;3250;42.694;23.278;2022-07-09T00:49:04;94762.47;;;19.12;90.14
6435;BME280;3250;42.694;23.278;2022-07-09T00:51:31;94761.66;;;19.12;89.92
6435;BME280;3250;42.694;23.278;2022-07-09T00:53:57;94765.69;;;19.09;90.11
6435;BME280;3250;42.694;23.278;2022-07-09T00:56:24;94759.78;;;18.82;90.94
6435;BME280;3250;42.694;23.278;2022-07-09T00:58:50;94721.88;;;18.65;91.05
6435;BME280;3250;42.694;23.278;2022-07-09T01:01:16;94739.50;;;18.86;91.01
6435;BME280;3250;42.694;23.278;2022-07-09T01:03:42;94740.59;;;18.85;90.98
6435;BME280;3250;42.694;23.278;2022-07-09T01:06:08;94749.13;;;18.82;90.69
6435;BME280;3250;42.694;23.278;2022-07-09T01:08:33;94735.25;;;18.75;90.60
6435;BME280;3250;42.694;23.278;2022-07-09T01:10:59;94745.91;;;18.80;90.48
6435;BME280;3250;42.694;23.278;2022-07-09T01:13:25;94730.41;;;18.62;90.86
6435;BME280;3250;42.694;23.278;2022-07-09T01:15:51;94747.22;;;18.77;91.17
6435;BME280;3250;42.694;23.278;2022-07-09T01:18:16;94721.22;;;18.27;91.15
6435;BME280;3250;42.694;23.278;2022-07-09T01:20:43;94724.38;;;18.14;92.97
6435;BME280;3250;42.694;23.278;2022-07-09T01:23:09;94736.94;;;18.29;93.17
6435;BME280;3250;42.694;23.278;2022-07-09T01:25:42;94738.56;;;18.35;93.62
6435;BME280;3250;42.694;23.278;2022-07-09T01:28:11;94735.66;;;18.46;93.37
6435;BME280;3250;42.694;23.278;2022-07-09T01:30:38;94733.31;;;18.60;92.93
6435;BME280;3250;42.694;23.278;2022-07-09T01:33:04;94732.28;;;18.66;91.93
6435;BME280;3250;42.694;23.278;2022-07-09T01:35:30;94725.88;;;18.72;91.29
6435;BME280;3250;42.694;23.278;2022-07-09T01:37:56;94725.59;;;18.64;90.86
6435;BME280;3250;42.694;23.278;2022-07-09T01:40:22;94702.38;;;18.49;91.13
6435;BME280;3250;42.694;23.278;2022-07-09T01:42:48;94727.22;;;18.70;91.46
6435;BME280;3250;42.694;23.278;2022-07-09T01:45:15;94720.84;;;18.76;91.27
6435;BME280;3250;42.694;23.278;2022-07-09T01:47:41;94712.81;;;18.71;90.63
6435;BME280;3250;42.694;23.278;2022-07-09T01:50:07;94720.78;;;18.61;90.79
6435;BME280;3250;42.694;23.278;2022-07-09T01:52:33;94732.19;;;18.51;91.43
6435;BME280;3250;42.694;23.278;2022-07-09T01:54:59;94722.09;;;18.48;91.54
6435;BME280;3250;42.694;23.278;2022-07-09T01:57:24;94711.69;;;18.46;91.76
6435;BME280;3250;42.694;23.278;2022-07-09T01:59:50;94731.19;;;18.62;91.66
6435;BME280;3250;42.694;23.278;2022-07-09T02:02:15;94727.22;;;18.65;91.59
6435;BME280;3250;42.694;23.278;2022-07-09T02:04:41;94716.53;;;18.60;91.27
6435;BME280;3250;42.694;23.278;2022-07-09T02:07:06;94724.56;;;18.75;91.41
6435;BME280;3250;42.694;23.278;2022-07-09T02:09:31;94725.63;;;18.79;91.47
6435;BME280;3250;42.694;23.278;2022-07-09T02:11:57;94725.63;;;18.79;90.54
6435;BME280;3250;42.694;23.278;2022-07-09T02:14:22;94735.78;;;18.82;90.49
6435;BME280;3250;42.694;23.278;2022-07-09T02:16:48;94731.78;;;18.84;90.68
6435;BME280;3250;42.694;23.278;2022-07-09T02:19:14;94736.59;;;18.82;90.48
6435;BME280;3250;42.694;23.278;2022-07-09T02:21:40;94734.69;;;18.73;90.90
6435;BME280;3250;42.694;23.278;2022-07-09T02:24:05;94737.66;;;18.76;90.80
6435;BME280;3250;42.694;23.278;2022-07-09T02:26:31;94695.69;;;18.46;90.16
6435;BME280;3250;42.694;23.278;2022-07-09T02:28:56;94748.00;;;18.63;90.44
6435;BME280;3250;42.694;23.278;2022-07-09T02:31:22;94744.78;;;18.61;90.61
6435;BME280;3250;42.694;23.278;2022-07-09T02:33:47;94738.13;;;18.63;90.27
6435;BME280;3250;42.694;23.278;2022-07-09T02:36:13;94745.34;;;18.58;89.73
6435;BME280;3250;42.694;23.278;2022-07-09T02:38:39;94740.50;;;18.55;90.36
6435;BME280;3250;42.694;23.278;2022-07-09T02:41:04;94753.84;;;18.60;90.57
6435;BME280;3250;42.694;23.278;2022-07-09T02:43:30;94744.78;;;18.61;91.01
6435;BME280;3250;42.694;23.278;2022-07-09T02:45:55;94726.63;;;18.47;91.03
6435;BME280;3250;42.694;23.278;2022-07-09T02:48:21;94748.81;;;18.63;91.05
6435;BME280;3250;42.694;23.278;2022-07-09T02:50:49;94749.06;;;18.62;91.01
6435;BME280;3250;42.694;23.278;2022-07-09T02:53:15;94749.59;;;18.64;90.67
6435;BME280;3250;42.694;23.278;2022-07-09T02:55:41;94726.06;;;18.45;90.92
6435;BME280;3250;42.694;23.278;2022-07-09T02:58:06;94751.47;;;18.63;90.73
6435;BME280;3250;42.694;23.278;2022-07-09T03:00:32;94749.59;;;18.64;90.62
6435;BME280;3250;42.694;23.278;2022-07-09T03:02:57;94757.00;;;18.46;90.61
6435;BME280;3250;42.694;23.278;2022-07-09T03:05:23;94757.53;;;18.48;90.98
6435;BME280;3250;42.694;23.278;2022-07-09T03:07:48;94756.75;;;18.48;91.32
6435;BME280;3250;42.694;23.278;2022-07-09T03:10:14;94762.06;;;18.53;90.93
6435;BME280;3250;42.694;23.278;2022-07-09T03:12:39;94760.53;;;18.57;89.82
6435;BME280;3250;42.694;23.278;2022-07-09T03:15:06;94766.66;;;18.58;90.02
6435;BME280;3250;42.694;23.278;2022-07-09T03:17:32;94755.69;;;18.54;90.38
6435;BME280;3250;42.694;23.278;2022-07-09T03:19:58;94760.22;;;18.54;90.39
6435;BME280;3250;42.694;23.278;2022-07-09T03:22:23;94760.28;;;18.59;90.64
6435;BME280;3250;42.694;23.278;2022-07-09T03:24:48;94753.09;;;18.59;90.54
6435;BME280;3250;42.694;23.278;2022-07-09T03:27:14;94758.31;;;18.44;90.97
6435;BME280;3250;42.694;23.278;2022-07-09T03:29:39;94757.00;;;18.46;91.17
6435;BME280;3250;42.694;23.278;2022-07-09T03:32:05;94762.88;;;18.54;91.26
6435;BME280;3250;42.694;23.278;2022-07-09T03:34:31;94756.19;;;18.51;91.19
6435;BME280;3250;42.694;23.278;2022-07-09T03:36:57;94755.44;;;18.56;90.96
6435;BME280;3250;42.694;23.278;2022-07-09T03:39:22;94754.03;;;18.38;91.45
6435;BME280;3250;42.694;23.278;2022-07-09T03:41:48;94751.59;;;18.21;92.96
6435;BME280;3250;42.694;23.278;2022-07-09T03:44:13;94750.28;;;18.29;92.67
6435;BME280;3250;42.694;23.278;2022-07-09T03:46:39;94745.25;;;18.37;91.92
6435;BME280;3250;42.694;23.278;2022-07-09T03:49:04;94753.28;;;18.47;92.22
6435;BME280;3250;42.694;23.278;2022-07-09T03:51:30;94755.69;;;18.49;91.71
6435;BME280;3250;42.694;23.278;2022-07-09T03:53:55;94757.00;;;18.52;91.63
6435;BME280;3250;42.694;23.278;2022-07-09T03:56:21;94731.13;;;18.42;90.88
6435;BME280;3250;42.694;23.278;2022-07-09T03:58:46;94762.13;;;18.58;90.84
6435;BME280;3250;42.694;23.278;2022-07-09T04:01:12;94756.81;;;18.63;90.57
6435;BME280;3250;42.694;23.278;2022-07-09T04:03:37;94764.81;;;18.63;90.41
6435;BME280;3250;42.694;23.278;2022-07-09T04:06:03;94764.00;;;18.63;90.59
6435;BME280;3250;42.694;23.278;2022-07-09T04:08:28;94766.16;;;18.66;90.62
6435;BME280;3250;42.694;23.278;2022-07-09T04:10:54;94767.72;;;18.62;90.97
6435;BME280;3250;42.694;23.278;2022-07-09T04:13:19;94762.94;;;18.59;91.57
6435;BME280;3250;42.694;23.278;2022-07-09T04:15:45;94765.31;;;18.60;91.43
6435;BME280;3250;42.694;23.278;2022-07-09T04:18:12;94769.06;;;18.64;91.08
6435;BME280;3250;42.694;23.278;2022-07-09T04:20:37;94780.56;;;18.70;91.14
6435;BME280;3250;42.694;23.278;2022-07-09T04:23:03;94777.88;;;18.70;91.48
6435;BME280;3250;42.694;23.278;2022-07-09T04:25:28;94774.44;;;18.74;91.70
6435;BME280;3250;42.694;23.278;2022-07-09T04:27:53;94777.38;;;18.78;90.77
6435;BME280;3250;42.694;23.278;2022-07-09T04:30:19;94781.91;;;18.77;90.83
6435;BME280;3250;42.694;23.278;2022-07-09T04:32:44;94780.59;;;18.75;90.73
6435;BME280;3250;42.694;23.278;2022-07-09T04:35:10;94769.88;;;18.70;90.68
6435;BME280;3250;42.694;23.278;2022-07-09T04:37:36;94770.94;;;18.59;90.32
6435;BME280;3250;42.694;23.278;2022-07-09T04:40:01;94777.59;;;18.61;91.42
6435;BME280;3250;42.694;23.278;2022-07-09T04:42:27;94770.59;;;18.45;91.17
6435;BME280;3250;42.694;23.278;2022-07-09T04:44:52;94763.59;;;18.34;91.98
6435;BME280;3250;42.694;23.278;2022-07-09T04:47:18;94770.06;;;18.48;92.70
6435;BME280;3250;42.694;23.278;2022-07-09T04:49:43;94766.66;;;18.58;91.91
6435;BME280;3250;42.694;23.278;2022-07-09T04:52:08;94765.59;;;18.64;91.71
6435;BME280;3250;42.694;23.278;2022-07-09T04:54:34;94770.13;;;18.63;91.70
6435;BME280;3250;42.694;23.278;2022-07-09T04:56:59;94740.75;;;18.48;92.31
6435;BME280;3250;42.694;23.278;2022-07-09T04:59:25;94750.97;;;18.66;92.14
6435;BME280;3250;42.694;23.278;2022-07-09T05:01:50;94765.63;;;18.74;91.66
6435;BME280;3250;42.694;23.278;2022-07-09T05:04:15;94771.00;;;18.84;91.71
6435;BME280;3250;42.694;23.278;2022-07-09T05:06:41;94771.00;;;18.94;91.67
6435;BME280;3250;42.694;23.278;2022-07-09T05:09:07;94774.50;;;19.00;91.10
6435;BME280;3250;42.694;23.278;2022-07-09T05:11:33;94778.22;;;19.04;91.48
6435;BME280;3250;42.694;23.278;2022-07-09T05:13:59;94780.09;;;19.08;90.73
6435;BME280;3250;42.694;23.278;2022-07-09T05:16:24;94776.88;;;19.11;90.43
6435;BME280;3250;42.694;23.278;2022-07-09T05:18:50;94781.72;;;19.19;90.61
6435;BME280;3250;42.694;23.278;2022-07-09T05:21:15;94782.25;;;19.16;89.46
6435;BME280;3250;42.694;23.278;2022-07-09T05:23:40;94771.28;;;19.08;89.96
6435;BME280;3250;42.694;23.278;2022-07-09T05:26:06;94783.84;;;19.17;89.19
6435;BME280;3250;42.694;23.278;2022-07-09T05:28:31;94794.25;;;19.19;89.05
6435;BME280;3250;42.694;23.278;2022-07-09T05:30:57;94786.22;;;19.14;89.41
6435;BME280;3250;42.694;23.278;2022-07-09T05:33:22;94792.41;;;19.19;89.89
6435;BME280;3250;42.694;23.278;2022-07-09T05:35:48;94797.44;;;19.16;89.89
6435;BME280;3250;42.694;23.278;2022-07-09T05:38:13;94794.78;;;19.16;90.33
6435;BME280;3250;42.694;23.278;2022-07-09T05:40:39;94800.13;;;19.11;89.83
6435;BME280;3250;42.694;23.278;2022-07-09T05:43:04;94806.78;;;19.13;89.57
6435;BME280;3250;42.694;23.278;2022-07-09T05:45:29;94801.44;;;19.13;89.99
6435;BME280;3250;42.694;23.278;2022-07-09T05:47:55;94797.72;;;19.14;90.48
6435;BME280;3250;42.694;23.278;2022-07-09T05:50:20;94803.56;;;19.11;90.13
6435;BME280;3250;42.694;23.278;2022-07-09T05:52:46;94807.53;;;18.89;90.33
6435;BME280;3250;42.694;23.278;2022-07-09T05:55:13;94807.56;;;18.94;91.03
6435;BME280;3250;42.694;23.278;2022-07-09T05:57:39;94803.56;;;19.01;90.44
6435;BME280;3250;42.694;23.278;2022-07-09T06:00:05;94782.19;;;18.76;89.43
6435;BME280;3250;42.694;23.278;2022-07-09T06:02:32;94808.59;;;18.88;90.40
6435;BME280;3250;42.694;23.278;2022-07-09T06:04:57;94803.28;;;18.93;91.30
6435;BME280;3250;42.694;23.278;2022-07-09T06:07:23;94789.94;;;18.88;91.09
6435;BME280;3250;42.694;23.278;2022-07-09T06:09:48;94807.81;;;18.97;90.79
6435;BME280;3250;42.694;23.278;2022-07-09T06:12:13;94807.81;;;18.97;90.57
6435;BME280;3250;42.694;23.278;2022-07-09T06:14:39;94809.16;;;18.90;90.18
6435;BME280;3250;42.694;23.278;2022-07-09T06:17:04;94813.69;;;18.94;90.61
6435;BME280;3250;42.694;23.278;2022-07-09T06:19:36;94796.06;;;18.83;90.90
6435;BME280;3250;42.694;23.278;2022-07-09T06:22:02;94812.63;;;18.90;90.77
6435;BME280;3250;42.694;23.278;2022-07-09T06:24:28;94817.94;;;18.90;91.24
6435;BME280;3250;42.694;23.278;2022-07-09T06:26:55;94812.88;;;18.89;91.26
6435;BME280;3250;42.694;23.278;2022-07-09T06:29:20;94796.03;;;18.78;91.71
6435;BME280;3250;42.694;23.278;2022-07-09T06:31:46;94817.44;;;18.93;92.35
6435;BME280;3250;42.694;23.278;2022-07-09T06:34:12;94813.44;;;19.01;91.76
6435;BME280;3250;42.694;23.278;2022-07-09T06:36:38;94809.72;;;19.02;91.00
6435;BME280;3250;42.694;23.278;2022-07-09T06:39:03;94821.97;;;18.98;91.62
6435;BME280;3250;42.694;23.278;2022-07-09T06:41:48;94810.75;;;18.96;91.61
6435;BME280;3250;42.694;23.278;2022-07-09T06:44:13;94819.88;;;19.10;91.19
6435;BME280;3250;42.694;23.278;2022-07-09T06:46:38;94817.97;;;19.05;90.74
6435;BME280;3250;42.694;23.278;2022-07-09T06:49:04;94825.97;;;19.05;91.04
6435;BME280;3250;42.694;23.278;2022-07-09T06:51:30;94827.03;;;19.04;90.78
6435;BME280;3250;42.694;23.278;2022-07-09T06:53:55;94827.06;;;19.09;91.11
6435;BME280;3250;42.694;23.278;2022-07-09T06:56:22;94819.06;;;19.14;90.50
6435;BME280;3250;42.694;23.278;2022-07-09T06:58:47;94820.38;;;19.12;90.65
6435;BME280;3250;42.694;23.278;2022-07-09T07:01:13;94824.13;;;19.16;90.94
6435;BME280;3250;42.694;23.278;2022-07-09T07:03:38;94822.53;;;19.20;90.52
6435;BME280;3250;42.694;23.278;2022-07-09T07:06:04;94822.81;;;19.23;90.38
6435;BME280;3250;42.694;23.278;2022-07-09T07:08:29;94827.38;;;19.28;89.99
6435;BME280;3250;42.694;23.278;2022-07-09T07:10:55;94824.41;;;19.30;90.41
6435;BME280;3250;42.694;23.278;2022-07-09T07:13:20;94817.75;;;19.32;89.95
6435;BME280;3250;42.694;23.278;2022-07-09T07:15:45;94825.47;;;19.23;90.19
6435;BME280;3250;42.694;23.278;2022-07-09T07:18:16;94829.75;;;19.19;90.85
6435;BME280;3250;42.694;23.278;2022-07-09T07:20:45;94800.66;;;19.08;91.40
6435;BME280;3250;42.694;23.278;2022-07-09T07:23:11;94821.75;;;19.40;92.03
6435;BME280;3250;42.694;23.278;2022-07-09T07:25:36;94826.34;;;19.54;92.13
6435;BME280;3250;42.694;23.278;2022-07-09T07:28:02;94822.84;;;19.64;90.46
6435;BME280;3250;42.694;23.278;2022-07-09T07:30:29;94818.31;;;19.75;90.43
6435;BME280;3250;42.694;23.278;2022-07-09T07:32:58;94798.81;;;19.74;90.25
6435;BME280;3250;42.694;23.278;2022-07-09T07:35:23;94825.50;;;20.00;89.09
6435;BME280;3250;42.694;23.278;2022-07-09T07:37:49;94799.06;;;19.93;88.43
6435;BME280;3250;42.694;23.278;2022-07-09T07:40:14;94827.88;;;20.21;88.78
6435;BME280;3250;42.694;23.278;2022-07-09T07:42:39;94822.75;;;20.40;88.52
6435;BME280;3250;42.694;23.278;2022-07-09T07:45:05;94822.66;;;20.60;87.91
6435;BME280;3250;42.694;23.278;2022-07-09T07:47:31;94821.81;;;20.70;87.21
6435;BME280;3250;42.694;23.278;2022-07-09T07:49:56;94820.19;;;20.84;86.41
6435;BME280;3250;42.694;23.278;2022-07-09T07:52:21;94820.94;;;20.85;84.71
6435;BME280;3250;42.694;23.278;2022-07-09T07:54:47;94829.28;;;20.83;84.52
6435;BME280;3250;42.694;23.278;2022-07-09T07:57:12;94831.94;;;20.83;83.80
6435;BME280;3250;42.694;23.278;2022-07-09T07:59:38;94817.28;;;20.76;83.17
6435;BME280;3250;42.694;23.278;2022-07-09T08:02:03;94810.59;;;20.68;84.47
6435;BME280;3250;42.694;23.278;2022-07-09T08:04:29;94829.59;;;20.71;84.36
6435;BME280;3250;42.694;23.278;2022-07-09T08:06:54;94831.75;;;20.64;83.87
6435;BME280;3250;42.694;23.278;2022-07-09T08:09:20;94800.53;;;20.45;83.79
6435;BME280;3250;42.694;23.278;2022-07-09T08:11:46;94819.00;;;20.46;83.98
6435;BME280;3250;42.694;23.278;2022-07-09T08:14:11;94827.25;;;20.55;85.78
6435;BME280;3250;42.694;23.278;2022-07-09T08:16:37;94829.09;;;20.59;86.36
6435;BME280;3250;42.694;23.278;2022-07-09T08:19:02;94818.84;;;20.82;85.77
6435;BME280;3250;42.694;23.278;2022-07-09T08:21:28;94823.22;;;21.12;84.97
6435;BME280;3250;42.694;23.278;2022-07-09T08:23:53;94830.63;;;21.30;83.34
6435;BME280;3250;42.694;23.278;2022-07-09T08:26:25;94823.81;;;21.48;84.19
6435;BME280;3250;42.694;23.278;2022-07-09T08:28:51;94825.34;;;21.59;80.50
6435;BME280;3250;42.694;23.278;2022-07-09T08:31:18;94810.88;;;21.55;80.34
6435;BME280;3250;42.694;23.278;2022-07-09T08:33:44;94812.69;;;21.64;80.86
6435;BME280;3250;42.694;23.278;2022-07-09T08:36:10;94816.69;;;21.67;79.31
6435;BME280;3250;42.694;23.278;2022-07-09T08:38:36;94827.41;;;21.67;79.39
6435;BME280;3250;42.694;23.278;2022-07-09T08:41:04;94827.66;;;21.70;79.17
6435;BME280;3250;42.694;23.278;2022-07-09T08:43:34;94806.53;;;21.64;79.79
6435;BME280;3250;42.694;23.278;2022-07-09T08:45:59;94831.69;;;21.68;78.70
6435;BME280;3250;42.694;23.278;2022-07-09T08:48:25;94821.91;;;21.53;79.73
6435;BME280;3250;42.694;23.278;2022-07-09T08:50:51;94836.91;;;21.49;80.33
6435;BME280;3250;42.694;23.278;2022-07-09T08:53:18;94830.25;;;21.46;81.38
6435;BME280;3250;42.694;23.278;2022-07-09T08:55:45;94815.41;;;21.25;81.46
6435;BME280;3250;42.694;23.278;2022-07-09T08:58:14;94835.16;;;21.34;81.32
6435;BME280;3250;42.694;23.278;2022-07-09T09:00:41;94834.09;;;21.30;81.11
6435;BME280;3250;42.694;23.278;2022-07-09T09:03:07;94825.59;;;21.23;82.17
6435;BME280;3250;42.694;23.278;2022-07-09T09:05:32;94836.28;;;21.23;82.00
6435;BME280;3250;42.694;23.278;2022-07-09T09:07:58;94838.47;;;21.16;82.45
6435;BME280;3250;42.694;23.278;2022-07-09T09:10:26;94829.94;;;21.04;83.14
6435;BME280;3250;42.694;23.278;2022-07-09T09:12:57;94826.47;;;21.03;83.75
6435;BME280;3250;42.694;23.278;2022-07-09T09:15:22;94835.88;;;21.01;84.35
6435;BME280;3250;42.694;23.278;2022-07-09T09:17:48;94831.59;;;20.95;84.26
6435;BME280;3250;42.694;23.278;2022-07-09T09:20:14;94836.47;;;20.88;83.76
6435;BME280;3250;42.694;23.278;2022-07-09T09:22:51;94843.72;;;20.82;84.42
6435;BME280;3250;42.694;23.278;2022-07-09T09:25:19;94833.59;;;20.74;84.58
6435;BME280;3250;42.694;23.278;2022-07-09T09:27:58;94836.53;;;20.73;84.92
6435;BME280;3250;42.694;23.278;2022-07-09T09:30:26;94832.75;;;20.79;85.11
6435;BME280;3250;42.694;23.278;2022-07-09T09:35:25;94817.28;;;20.76;84.62
6435;BME280;3250;42.694;23.278;2022-07-09T09:37:51;94829.50;;;20.87;85.49
6435;BME280;3250;42.694;23.278;2022-07-09T09:40:17;94827.31;;;20.94;85.84
6435;BME280;3250;42.694;23.278;2022-07-09T09:42:44;94837.50;;;20.97;84.70
6435;BME280;3250;42.694;23.278;2022-07-09T09:45:13;94832.13;;;20.97;83.73
6435;BME280;3250;42.694;23.278;2022-07-09T09:47:51;94836.16;;;20.99;84.30
6435;BME280;3250;42.694;23.278;2022-07-09T09:50:22;94836.41;;;20.98;84.72
6435;BME280;3250;42.694;23.278;2022-07-09T09:52:49;94840.16;;;20.97;84.84
6435;BME280;3250;42.694;23.278;2022-07-09T09:55:16;94832.97;;;20.92;84.48
6435;BME280;3250;42.694;23.278;2022-07-09T09:57:42;94839.13;;;20.88;84.38
6435;BME280;3250;42.694;23.278;2022-07-09T10:00:09;94846.41;;;20.77;84.25
6435;BME280;3250;42.694;23.278;2022-07-09T10:02:36;94834.66;;;20.68;84.16
6435;BME280;3250;42.694;23.278;2022-07-09T10:05:03;94837.38;;;20.63;85.53
6435;BME280;3250;42.694;23.278;2022-07-09T10:07:29;94828.56;;;20.62;85.57
6435;BME280;3250;42.694;23.278;2022-07-09T10:09:58;94836.03;;;20.60;85.84
6435;BME280;3250;42.694;23.278;2022-07-09T10:12:28;94834.44;;;20.59;86.31
6435;BME280;3250;42.694;23.278;2022-07-09T10:14:55;94831.78;;;20.54;86.28
6435;BME280;3250;42.694;23.278;2022-07-09T10:17:20;94833.94;;;20.52;86.43
6435;BME280;3250;42.694;23.278;2022-07-09T10:20:03;94836.88;;;20.56;86.84
6435;BME280;3250;42.694;23.278;2022-07-09T10:22:45;94807.78;;;20.29;86.26
6435;BME280;3250;42.694;23.278;2022-07-09T10:25:12;94839.31;;;20.47;87.05
6435;BME280;3250;42.694;23.278;2022-07-09T10:27:47;94835.56;;;20.48;87.53
6435;BME280;3250;42.694;23.278;2022-07-09T10:33:11;94843.53;;;20.58;87.00
6435;BME280;3250;42.694;23.278;2022-07-09T10:35:44;94846.44;;;20.67;86.82
6435;BME280;3250;42.694;23.278;2022-07-09T10:38:11;94844.56;;;20.73;86.93
6435;BME280;3250;42.694;23.278;2022-07-09T10:40:44;94856.31;;;20.77;87.07
6435;BME280;3250;42.694;23.278;2022-07-09T10:43:10;94855.00;;;20.69;85.28
6435;BME280;3250;42.694;23.278;2022-07-09T10:45:44;94851.03;;;20.66;85.83
6435;BME280;3250;42.694;23.278;2022-07-09T10:48:11;94854.78;;;20.65;85.39
6435;BME280;3250;42.694;23.278;2022-07-09T10:50:44;94826.25;;;20.41;84.55
6435;BME280;3250;42.694;23.278;2022-07-09T10:53:11;94863.38;;;20.57;84.83
6435;BME280;3250;42.694;23.278;2022-07-09T10:55:40;94855.09;;;20.44;84.55
6435;BME280;3250;42.694;23.278;2022-07-09T10:58:19;94861.50;;;20.43;84.54
6435;BME280;3250;42.694;23.278;2022-07-09T11:00:44;94827.88;;;20.21;83.80
6435;BME280;3250;42.694;23.278;2022-07-09T11:03:24;94870.91;;;20.35;84.05
6435;BME280;3250;42.694;23.278;2022-07-09T11:05:49;94858.88;;;20.38;83.55
6435;BME280;3250;42.694;23.278;2022-07-09T11:08:15;94838.81;;;20.35;84.72
6435;BME280;3250;42.694;23.278;2022-07-09T11:10:41;94859.59;;;20.58;85.10
6435;BME280;3250;42.694;23.278;2022-07-09T11:13:07;94861.16;;;20.69;84.90
6435;BME280;3250;42.694;23.278;2022-07-09T11:15:35;94858.44;;;20.80;83.73
6435;BME280;3250;42.694;23.278;2022-07-09T11:18:07;94864.34;;;20.82;82.30
6435;BME280;3250;42.694;23.278;2022-07-09T11:20:44;94870.22;;;20.84;82.41
6435;BME280;3250;42.694;23.278;2022-07-09T11:23:11;94868.63;;;20.78;82.17
6435;BME280;3250;42.694;23.278;2022-07-09T11:25:37;94870.25;;;20.74;81.69
6435;BME280;3250;42.694;23.278;2022-07-09T11:28:02;94871.66;;;20.51;81.57
6435;BME280;3250;42.694;23.278;2022-07-09T11:30:29;94870.91;;;20.40;81.70
6435;BME280;3250;42.694;23.278;2022-07-09T11:32:55;94860.44;;;20.33;82.28
6435;BME280;3250;42.694;23.278;2022-07-09T11:35:28;94858.88;;;20.38;82.55
6435;BME280;3250;42.694;23.278;2022-07-09T11:37:57;94861.50;;;20.48;82.90
6435;BME280;3250;42.694;23.278;2022-07-09T11:40:23;94853.25;;;20.39;81.33
6435;BME280;3250;42.694;23.278;2022-07-09T11:42:50;94863.88;;;20.59;83.29
6435;BME280;3250;42.694;23.278;2022-07-09T11:45:20;94861.72;;;20.66;81.60
6435;BME280;3250;42.694;23.278;2022-07-09T11:47:46;94859.06;;;20.66;81.14
6435;BME280;3250;42.694;23.278;2022-07-09T11:50:13;94849.38;;;20.70;81.07
6435;BME280;3250;42.694;23.278;2022-07-09T11:52:50;94856.59;;;20.75;80.69
6435;BME280;3250;42.694;23.278;2022-07-09T11:55:20;94856.03;;;20.78;80.75
6435;BME280;3250;42.694;23.278;2022-07-09T11:57:56;94846.22;;;20.58;80.67
6435;BME280;3250;42.694;23.278;2022-07-09T12:00:27;94840.13;;;20.48;80.35
6435;BME280;3250;42.694;23.278;2022-07-09T12:02:54;94855.84;;;20.59;81.02
6435;BME280;3250;42.694;23.278;2022-07-09T12:05:32;94855.59;;;20.56;80.40
6435;BME280;3250;42.694;23.278;2022-07-09T12:08:00;94842.00;;;20.47;81.09
6435;BME280;3250;42.694;23.278;2022-07-09T12:10:30;94844.41;;;20.44;82.14
6435;BME280;3250;42.694;23.278;2022-07-09T12:12:56;94847.34;;;20.47;82.65
6435;BME280;3250;42.694;23.278;2022-07-09T12:15:22;94838.72;;;20.65;82.57
6435;BME280;3250;42.694;23.278;2022-07-09T12:17:55;94839.41;;;20.86;81.78
6435;BME280;3250;42.694;23.278;2022-07-09T12:20:24;94834.44;;;21.14;82.18
6435;BME280;3250;42.694;23.278;2022-07-09T12:22:50;94837.31;;;21.32;80.97
6435;BME280;3250;42.694;23.278;2022-07-09T12:25:16;94836.06;;;21.54;80.51
6435;BME280;3250;42.694;23.278;2022-07-09T12:27:42;94845.03;;;21.73;76.99
6435;BME280;3250;42.694;23.278;2022-07-09T12:30:08;94824.06;;;21.80;79.29
6435;BME280;3250;42.694;23.278;2022-07-09T12:32:33;94844.31;;;21.96;76.56
6435;BME280;3250;42.694;23.278;2022-07-09T12:35:03;94835.56;;;22.14;77.15
6435;BME280;3250;42.694;23.278;2022-07-09T12:37:28;94838.97;;;22.25;75.38
6435;BME280;3250;42.694;23.278;2022-07-09T12:39:54;94848.22;;;22.14;73.87
6435;BME280;3250;42.694;23.278;2022-07-09T12:42:20;94851.47;;;22.06;73.66
6435;BME280;3250;42.694;23.278;2022-07-09T12:44:46;94849.38;;;22.03;74.50
6435;BME280;3250;42.694;23.278;2022-07-09T12:47:12;94839.50;;;21.98;75.21
6435;BME280;3250;42.694;23.278;2022-07-09T12:49:37;94839.97;;;22.05;76.17
6435;BME280;3250;42.694;23.278;2022-07-09T12:52:03;94837.38;;;21.90;74.05
6435;BME280;3250;42.694;23.278;2022-07-09T12:54:28;94835.84;;;21.84;74.57
6435;BME280;3250;42.694;23.278;2022-07-09T12:56:54;94833.63;;;21.91;76.13
6435;BME280;3250;42.694;23.278;2022-07-09T12:59:20;94828.25;;;21.96;75.55
6435;BME280;3250;42.694;23.278;2022-07-09T13:01:46;94832.81;;;21.91;74.31
6435;BME280;3250;42.694;23.278;2022-07-09T13:04:11;94827.06;;;21.78;75.30
6435;BME280;3250;42.694;23.278;2022-07-09T13:06:37;94830.16;;;21.62;74.08
6435;BME280;3250;42.694;23.278;2022-07-09T13:09:04;94827.06;;;21.39;74.97
6435;BME280;3250;42.694;23.278;2022-07-09T13:11:31;94810.13;;;21.05;75.83